Time;durP1;ratioP1;P1;durP2;ratioP2;P2;SDS_P1;SDS_P2;PMS_P1;PMS_P2;Temp;Humidity;BMP_temperature;BMP_pressure;BME280_temperature;BME280_humidity;BME280_pressure;Samples;Min_cycle;Max_cycle;Signal;HPM_P1;HPM_P2
2023/10/13 00:01:11;;;;;;;12.10;10.37;;;15.40;99.90;;;;;;5010929;28;20533;-64
2023/10/13 00:03:40;;;;;;;10.33;9.20;;;15.40;99.90;;;;;;5010523;28;20451;-64
2023/10/13 00:06:08;;;;;;;13.83;9.40;;;15.40;99.90;;;;;;5008046;28;20584;-63
2023/10/13 00:08:38;;;;;;;12.07;9.30;;;15.30;99.90;;;;;;5008915;28;20440;-63
2023/10/13 00:11:05;;;;;;;12.68;8.85;;;15.30;99.90;;;;;;5010797;28;20454;-64
2023/10/13 00:13:40;;;;;;;10.80;9.93;;;15.30;99.90;;;;;;5011288;28;20596;-64
2023/10/13 00:16:09;;;;;;;10.37;8.80;;;15.40;99.90;;;;;;5011186;28;20972;-64
2023/10/13 00:18:41;;;;;;;12.63;9.33;;;15.40;99.90;;;;;;5010864;28;20821;-64
2023/10/13 00:21:13;;;;;;;10.23;8.27;;;15.40;99.90;;;;;;5011140;28;20442;-64
2023/10/13 00:23:43;;;;;;;10.97;9.87;;;15.30;99.90;;;;;;5011502;28;20945;-65
2023/10/13 00:26:10;;;;;;;8.27;7.27;;;15.30;99.90;;;;;;5010635;28;20506;-63
2023/10/13 00:28:44;;;;;;;10.67;9.13;;;15.30;99.90;;;;;;5010803;28;20463;-64
2023/10/13 00:31:11;;;;;;;8.70;7.97;;;15.30;99.90;;;;;;5011125;28;20504;-64
2023/10/13 00:33:38;;;;;;;12.53;10.10;;;15.20;99.90;;;;;;5011350;28;20510;-65
2023/10/13 00:36:07;;;;;;;9.33;8.43;;;15.30;99.90;;;;;;5014152;28;20465;-64
2023/10/13 00:38:37;;;;;;;10.93;9.82;;;15.20;99.90;;;;;;5014188;28;20461;-64
2023/10/13 00:41:13;;;;;;;10.13;8.50;;;15.30;99.90;;;;;;5014567;28;20218;-64
2023/10/13 00:43:53;;;;;;;9.50;8.60;;;15.30;99.90;;;;;;5014802;28;20456;-64
2023/10/13 00:46:22;;;;;;;10.73;9.20;;;15.30;99.90;;;;;;5014638;28;20494;-64
2023/10/13 00:48:52;;;;;;;9.30;8.40;;;15.30;99.90;;;;;;5014539;28;20485;-64
2023/10/13 00:51:32;;;;;;;8.60;7.40;;;15.20;99.90;;;;;;5014732;28;20440;-63
2023/10/13 00:54:07;;;;;;;11.30;8.57;;;15.20;99.90;;;;;;5014640;28;20540;-65
2023/10/13 00:56:33;;;;;;;10.52;9.32;;;15.20;99.90;;;;;;5014214;28;20527;-64
2023/10/13 00:59:03;;;;;;;10.00;9.00;;;15.20;99.90;;;;;;5013880;28;20676;-64
2023/10/13 01:01:29;;;;;;;10.63;8.50;;;15.30;99.90;;;;;;5014473;28;20813;-64
2023/10/13 01:03:59;;;;;;;9.57;8.70;;;15.40;99.90;;;;;;5014447;28;20447;-64
2023/10/13 01:06:26;;;;;;;12.30;8.90;;;15.30;99.90;;;;;;5019683;28;20491;-65
2023/10/13 01:09:10;;;;;;;11.00;9.02;;;15.30;99.90;;;;;;5033053;28;20448;-63
2023/10/13 01:11:37;;;;;;;9.17;8.17;;;15.30;99.90;;;;;;5033667;28;20203;-64
2023/10/13 01:14:06;;;;;;;11.70;10.50;;;15.30;99.90;;;;;;5034065;28;20445;-64
2023/10/13 01:16:32;;;;;;;9.70;8.40;;;15.30;99.90;;;;;;5033970;28;20526;-63
2023/10/13 01:19:04;;;;;;;8.37;7.60;;;15.30;99.90;;;;;;5033561;28;20956;-65
2023/10/13 01:21:32;;;;;;;16.50;7.70;;;15.30;99.90;;;;;;5033691;28;20457;-64
2023/10/13 01:24:01;;;;;;;12.60;7.93;;;15.30;99.90;;;;;;5034113;28;20471;-64
2023/10/13 01:26:27;;;;;;;10.53;8.23;;;15.30;99.90;;;;;;5033558;28;20583;-64
2023/10/13 01:28:58;;;;;;;11.43;8.90;;;15.30;99.90;;;;;;5033312;28;20542;-64
2023/10/13 01:31:26;;;;;;;18.40;10.80;;;15.20;99.90;;;;;;5033360;28;20203;-64
2023/10/13 01:33:54;;;;;;;9.40;8.43;;;15.20;99.90;;;;;;5033306;28;20462;-64
2023/10/13 01:36:21;;;;;;;10.67;8.57;;;15.20;99.90;;;;;;5033426;28;20917;-64
2023/10/13 01:38:48;;;;;;;8.90;8.00;;;15.20;99.90;;;;;;5032884;28;20579;-63
2023/10/13 01:41:16;;;;;;;13.83;8.50;;;15.20;99.90;;;;;;5033417;28;20525;-65
2023/10/13 01:43:43;;;;;;;8.80;7.60;;;15.20;99.90;;;;;;5033369;28;20472;-64
2023/10/13 01:46:09;;;;;;;9.90;7.32;;;15.20;99.90;;;;;;5032677;28;20491;-64
2023/10/13 01:48:38;;;;;;;12.53;8.07;;;15.20;99.90;;;;;;5032579;28;20210;-64
2023/10/13 01:51:08;;;;;;;12.47;8.10;;;15.30;99.90;;;;;;5033572;28;20548;-65
2023/10/13 01:53:36;;;;;;;10.83;9.50;;;15.30;99.90;;;;;;5033091;28;21017;-64
2023/10/13 01:56:09;;;;;;;10.65;9.00;;;15.30;99.90;;;;;;5032986;28;20555;-64
2023/10/13 01:58:41;;;;;;;9.00;8.20;;;15.30;99.90;;;;;;5032827;28;20203;-63
2023/10/13 02:01:07;;;;;;;11.57;9.30;;;15.30;99.90;;;;;;5033241;28;20564;-64
2023/10/13 02:03:36;;;;;;;12.00;7.57;;;15.30;99.90;;;;;;5032800;28;20531;-64
2023/10/13 02:06:04;;;;;;;11.73;8.80;;;15.20;99.90;;;;;;5032778;28;20490;-64
2023/10/13 02:08:31;;;;;;;9.77;8.87;;;15.20;99.90;;;;;;5032487;28;20458;-64
2023/10/13 02:10:58;;;;;;;9.20;8.30;;;15.20;99.90;;;;;;5032781;28;20544;-63
2023/10/13 02:13:29;;;;;;;9.27;8.37;;;15.20;99.90;;;;;;5032323;28;20437;-64
2023/10/13 02:15:57;;;;;;;8.90;7.97;;;15.20;99.90;;;;;;5032415;28;20544;-64
2023/10/13 02:18:33;;;;;;;11.10;10.10;;;15.20;99.90;;;;;;5032111;28;20453;-64
2023/10/13 02:21:04;;;;;;;9.07;8.07;;;15.10;99.90;;;;;;5032442;28;20534;-64
2023/10/13 02:23:31;;;;;;;10.40;7.83;;;15.10;99.90;;;;;;5032458;28;20446;-64
2023/10/13 02:26:00;;;;;;;9.80;8.60;;;15.10;99.90;;;;;;5032050;28;20442;-64
2023/10/13 02:28:29;;;;;;;10.17;8.60;;;15.10;99.90;;;;;;5031722;28;20453;-64
2023/10/13 02:30:57;;;;;;;8.65;7.78;;;15.10;99.90;;;;;;5032473;28;20824;-64
2023/10/13 02:33:29;;;;;;;10.23;9.30;;;15.10;99.90;;;;;;5032524;28;20207;-64
2023/10/13 02:35:56;;;;;;;8.93;7.97;;;15.20;99.90;;;;;;5032551;28;20446;-64
2023/10/13 02:38:33;;;;;;;13.10;8.60;;;15.20;99.90;;;;;;5031840;28;20784;-63
2023/10/13 02:41:05;;;;;;;10.77;8.77;;;15.10;99.90;;;;;;5032197;28;20931;-64
2023/10/13 02:43:33;;;;;;;9.10;8.20;;;15.10;99.90;;;;;;5032384;28;20537;-64
2023/10/13 02:46:01;;;;;;;9.32;8.52;;;15.10;99.90;;;;;;5032122;28;20880;-64
2023/10/13 02:48:39;;;;;;;11.27;8.60;;;15.10;99.90;;;;;;5031892;28;20242;-65
2023/10/13 02:51:15;;;;;;;11.20;9.57;;;15.10;99.90;;;;;;5032041;28;20879;-64
2023/10/13 02:53:42;;;;;;;9.67;8.67;;;15.10;99.90;;;;;;5027222;28;20522;-64
2023/10/13 02:56:08;;;;;;;12.33;8.73;;;15.00;99.90;;;;;;5011816;28;20563;-64
2023/10/13 02:58:45;;;;;;;10.90;8.23;;;15.00;99.90;;;;;;5011148;28;20971;-64
2023/10/13 03:01:18;;;;;;;10.27;8.87;;;15.00;99.90;;;;;;5012154;28;20456;-63
2023/10/13 03:03:49;;;;;;;9.80;8.80;;;15.00;99.90;;;;;;5012316;28;20525;-64
2023/10/13 03:06:16;;;;;;;11.50;8.40;;;15.00;99.90;;;;;;5011495;28;20482;-64
2023/10/13 03:08:44;;;;;;;12.47;10.03;;;15.00;99.90;;;;;;5011611;28;20555;-63
2023/10/13 03:11:11;;;;;;;9.63;8.63;;;15.00;99.90;;;;;;5010809;28;20450;-64
2023/10/13 03:13:43;;;;;;;12.48;9.10;;;15.00;99.90;;;;;;5011482;28;20735;-63
2023/10/13 03:16:15;;;;;;;12.63;9.10;;;15.10;99.90;;;;;;5011353;28;20228;-64
2023/10/13 03:18:51;;;;;;;9.97;8.80;;;15.20;99.90;;;;;;5011425;28;20458;-64
2023/10/13 03:21:28;;;;;;;10.20;9.20;;;15.10;99.90;;;;;;5011970;28;20452;-64
2023/10/13 03:23:55;;;;;;;10.50;9.30;;;15.10;99.90;;;;;;5012181;28;20487;-64
2023/10/13 03:26:21;;;;;;;10.53;8.40;;;15.10;99.90;;;;;;5011972;28;20472;-64
2023/10/13 03:28:51;;;;;;;12.07;9.23;;;15.10;99.90;;;;;;5011428;28;20529;-63
2023/10/13 03:31:27;;;;;;;8.40;7.63;;;15.10;99.90;;;;;;5012074;28;20874;-64
2023/10/13 03:33:59;;;;;;;10.77;8.63;;;15.10;99.90;;;;;;5011819;28;20212;-64
2023/10/13 03:36:56;;;;;;;9.70;8.00;;;15.10;99.90;;;;;;5011845;28;20470;-64
2023/10/13 03:39:28;;;;;;;10.23;9.03;;;15.10;99.90;;;;;;5011478;28;20476;-64
2023/10/13 03:41:56;;;;;;;10.33;8.50;;;15.10;99.90;;;;;;5011978;28;20826;-64
2023/10/13 03:44:23;;;;;;;10.05;8.25;;;15.00;99.90;;;;;;5011838;28;20511;-64
2023/10/13 03:46:55;;;;;;;9.53;8.63;;;15.00;99.90;;;;;;5011647;28;20230;-63
2023/10/13 03:49:25;;;;;;;10.57;9.57;;;15.10;99.90;;;;;;5011695;28;20478;-64
2023/10/13 03:51:54;;;;;;;11.90;10.43;;;15.00;99.90;;;;;;5011786;28;20551;-64
2023/10/13 03:54:21;;;;;;;11.50;8.30;;;15.00;99.90;;;;;;5013471;28;20497;-64
2023/10/13 03:56:52;;;;;;;9.53;8.60;;;15.00;99.90;;;;;;5006988;28;20551;-64
2023/10/13 03:59:19;;;;;;;8.87;7.97;;;15.00;99.90;;;;;;5010874;28;20526;-65
2023/10/13 04:01:47;;;;;;;11.73;7.83;;;14.90;99.90;;;;;;5011882;28;20458;-64
2023/10/13 04:04:33;;;;;;;9.70;8.03;;;14.90;99.90;;;;;;5011968;28;20501;-64
2023/10/13 04:07:39;;;;;;;8.20;7.50;;;14.80;99.90;;;;;;5022503;28;20557;-64
2023/10/13 04:15:36;;;;;;;11.43;9.17;;;14.80;99.90;;;;;;5035542;28;20540;-64
2023/10/13 04:18:14;;;;;;;8.53;7.63;;;14.80;99.90;;;;;;5028256;28;20518;-64
2023/10/13 04:20:46;;;;;;;12.57;8.50;;;14.70;99.90;;;;;;5028724;28;20446;-64
2023/10/13 04:23:19;;;;;;;11.10;8.70;;;14.70;99.90;;;;;;5034998;28;20964;-64
2023/10/13 04:28:52;;;;;;;8.77;7.90;;;14.60;99.90;;;;;;4954247;29;20487;-64
2023/10/13 04:31:43;;;;;;;12.20;9.10;;;14.50;99.90;;;;;;5020695;28;20467;-64
2023/10/13 04:34:19;;;;;;;9.27;8.37;;;14.60;99.90;;;;;;5035194;28;20206;-64
2023/10/13 04:36:46;;;;;;;9.93;9.03;;;14.60;99.90;;;;;;5034793;28;20472;-64
2023/10/13 04:39:29;;;;;;;11.77;9.47;;;14.50;99.90;;;;;;5034486;28;20810;-64
2023/10/13 04:41:57;;;;;;;9.13;8.23;;;14.50;99.90;;;;;;5024671;28;20490;-64
2023/10/13 04:47:17;;;;;;;10.47;9.40;;;14.40;99.90;;;;;;5033472;28;20490;-64
2023/10/13 04:49:51;;;;;;;10.53;9.13;;;14.40;99.90;;;;;;5034420;28;20456;-64
2023/10/13 04:55:32;;;;;;;9.40;8.33;;;14.30;99.90;;;;;;5034712;28;20428;-64
2023/10/13 04:58:10;;;;;;;9.87;8.77;;;14.30;99.90;;;;;;5033918;28;20466;-64
2023/10/13 05:01:17;;;;;;;12.00;8.50;;;14.20;99.90;;;;;;5034263;28;20532;-63
2023/10/13 05:04:21;;;;;;;10.20;9.20;;;14.10;99.90;;;;;;5034418;28;20449;-65
2023/10/13 05:48:02;;;;;;;9.83;8.83;;;13.80;99.90;;;;;;5052527;28;20314;-63
2023/10/13 06:28:56;;;;;;;12.25;11.23;;;14.00;99.90;;;;;;5025756;28;20489;-63
2023/10/13 06:31:25;;;;;;;12.57;9.88;;;14.00;99.90;;;;;;5027816;28;20207;-63
2023/10/13 06:33:55;;;;;;;13.00;10.97;;;14.10;99.90;;;;;;5027253;28;20811;-63
2023/10/13 06:36:22;;;;;;;15.67;11.17;;;14.20;99.90;;;;;;5030969;28;20496;-63
2023/10/13 06:38:55;;;;;;;12.27;11.13;;;14.20;99.90;;;;;;5026487;28;20516;-63
2023/10/13 06:41:30;;;;;;;11.33;10.17;;;14.30;99.90;;;;;;5028273;28;20446;-63
2023/10/13 06:44:00;;;;;;;12.87;11.67;;;14.30;99.90;;;;;;5027773;28;20503;-63
2023/10/13 06:46:33;;;;;;;13.53;10.57;;;14.30;99.90;;;;;;5028107;28;20642;-63
2023/10/13 06:49:02;;;;;;;13.80;10.87;;;14.30;99.90;;;;;;5028014;28;20500;-63
2023/10/13 06:51:37;;;;;;;12.50;11.30;;;14.40;99.90;;;;;;5028389;28;20458;-63
2023/10/13 06:54:09;;;;;;;12.70;11.40;;;14.40;99.90;;;;;;5028900;28;20445;-63
2023/10/13 06:56:39;;;;;;;12.47;10.80;;;14.50;99.90;;;;;;5028698;28;20242;-63
2023/10/13 06:59:06;;;;;;;14.57;10.60;;;14.60;99.90;;;;;;5028421;28;20465;-63
2023/10/13 07:01:38;;;;;;;11.80;10.60;;;14.60;99.90;;;;;;5025851;28;21170;-63
2023/10/13 07:04:12;;;;;;;10.90;9.90;;;14.60;99.90;;;;;;5031900;28;20450;-63
2023/10/13 07:06:42;;;;;;;11.05;9.27;;;14.60;99.90;;;;;;5026045;28;20551;-63
2023/10/13 07:09:15;;;;;;;9.93;8.67;;;14.70;99.90;;;;;;5030647;28;20528;-63
2023/10/13 07:11:43;;;;;;;10.30;9.40;;;14.80;99.90;;;;;;5026076;28;20500;-64
2023/10/13 07:14:10;;;;;;;10.90;9.57;;;14.80;99.90;;;;;;5031205;28;20899;-63
2023/10/13 07:16:58;;;;;;;10.23;9.32;;;14.80;99.90;;;;;;5023882;28;20457;-63
2023/10/13 07:19:27;;;;;;;10.60;9.63;;;14.90;99.90;;;;;;5030688;28;20206;-63
2023/10/13 07:21:58;;;;;;;10.93;9.82;;;14.90;99.90;;;;;;5023859;28;20457;-63
2023/10/13 07:24:27;;;;;;;11.90;10.80;;;15.00;99.90;;;;;;5031176;28;20214;-64
2023/10/13 07:27:03;;;;;;;11.70;9.60;;;15.00;99.90;;;;;;5026712;28;20468;-63
2023/10/13 07:29:30;;;;;;;11.00;9.90;;;15.10;99.90;;;;;;5022862;28;20963;-63
2023/10/13 07:31:58;;;;;;;10.13;9.23;;;15.20;99.90;;;;;;5028589;28;20266;-63
2023/10/13 07:34:26;;;;;;;11.47;9.87;;;15.20;99.90;;;;;;5031262;28;20847;-63
2023/10/13 07:36:59;;;;;;;13.30;11.17;;;15.30;99.90;;;;;;5029266;28;20466;-64
2023/10/13 07:39:28;;;;;;;11.27;9.53;;;15.30;99.90;;;;;;5031125;28;20493;-64
2023/10/13 07:42:03;;;;;;;11.40;10.27;;;15.40;99.90;;;;;;5028978;28;20532;-63
2023/10/13 07:44:33;;;;;;;11.97;10.87;;;15.40;99.90;;;;;;5030693;28;20530;-64
2023/10/13 07:47:02;;;;;;;11.63;10.43;;;15.40;99.90;;;;;;5029845;28;20461;-64
2023/10/13 07:49:36;;;;;;;13.00;11.90;;;15.50;99.90;;;;;;5030667;28;20440;-63
2023/10/13 07:52:14;;;;;;;12.80;10.33;;;15.60;99.90;;;;;;5029783;28;20252;-64
2023/10/13 07:54:44;;;;;;;18.17;10.33;;;15.60;99.90;;;;;;5030920;28;20961;-63
2023/10/13 07:57:14;;;;;;;11.20;10.10;;;15.70;99.90;;;;;;5028248;28;20513;-63
2023/10/13 07:59:47;;;;;;;13.53;12.13;;;15.70;99.90;;;;;;5028037;28;20450;-63
2023/10/13 08:02:47;;;;;;;16.05;11.70;;;15.70;99.90;;;;;;5024331;28;20905;-63
2023/10/13 08:05:04;;;;;;;12.95;10.80;;;15.80;99.90;;;;;;5028543;28;20206;-63
2023/10/13 08:07:31;;;;;;;11.97;10.77;;;15.90;99.90;;;;;;5029525;28;20816;-63
2023/10/13 08:09:59;;;;;;;13.53;9.60;;;16.00;99.90;;;;;;5027676;28;20555;-63
2023/10/13 08:12:27;;;;;;;11.47;10.27;;;16.00;99.90;;;;;;5023986;28;20731;-64
2023/10/13 08:15:12;;;;;;;14.40;12.15;;;16.00;99.90;;;;;;5030108;28;20489;-63
2023/10/13 08:17:44;;;;;;;12.10;10.90;;;16.10;99.90;;;;;;5014380;28;20738;-64
2023/10/13 08:20:12;;;;;;;11.80;10.13;;;16.20;99.90;;;;;;5026795;28;20453;-63
2023/10/13 08:22:47;;;;;;;11.40;10.23;;;16.20;99.90;;;;;;5029620;28;20461;-64
2023/10/13 08:25:20;;;;;;;11.73;9.60;;;16.20;99.90;;;;;;5023741;28;20943;-64
2023/10/13 08:27:50;;;;;;;12.80;10.30;;;16.30;99.90;;;;;;5028894;28;20515;-64
2023/10/13 08:30:30;;;;;;;10.77;9.67;;;16.30;99.90;;;;;;5029295;28;20954;-64
2023/10/13 08:32:59;;;;;;;12.17;10.97;;;16.40;99.90;;;;;;5026595;28;20504;-64
2023/10/13 08:35:35;;;;;;;13.25;11.50;;;16.40;99.90;;;;;;5028787;28;20507;-64
2023/10/13 08:38:13;;;;;;;11.53;9.20;;;16.50;99.90;;;;;;5028969;28;20227;-64
2023/10/13 08:41:09;;;;;;;11.07;9.97;;;16.60;99.90;;;;;;5028575;28;20550;-64
2023/10/13 08:43:44;;;;;;;12.00;10.90;;;16.70;99.90;;;;;;5025930;28;20534;-64
2023/10/13 08:46:25;;;;;;;11.20;9.80;;;16.70;99.90;;;;;;5027147;28;20448;-64
2023/10/13 08:49:13;;;;;;;11.67;10.67;;;16.80;99.90;;;;;;5022795;28;20496;-64
2023/10/13 08:51:44;;;;;;;11.53;10.50;;;16.90;99.90;;;;;;5022619;28;20482;-64
2023/10/13 08:56:56;;;;;;;10.53;9.47;;;17.00;99.90;;;;;;5028515;28;20588;-64
2023/10/13 08:59:22;;;;;;;11.10;9.13;;;17.10;99.90;;;;;;5031698;28;20453;-64
2023/10/13 09:01:59;;;;;;;10.00;8.57;;;17.20;99.90;;;;;;5033085;28;20450;-64
2023/10/13 09:04:33;;;;;;;11.97;10.20;;;17.30;99.90;;;;;;5034118;28;21035;-64
2023/10/13 09:07:07;;;;;;;9.33;8.40;;;17.40;99.90;;;;;;5032576;28;20453;-64
2023/10/13 09:09:59;;;;;;;10.80;9.67;;;17.50;99.90;;;;;;5026668;28;20487;-64
2023/10/13 09:12:35;;;;;;;11.87;8.90;;;17.60;99.90;;;;;;5032839;28;20536;-64
2023/10/13 09:15:05;;;;;;;9.57;8.67;;;17.70;99.90;;;;;;5029280;28;20981;-64
2023/10/13 09:17:35;;;;;;;14.90;9.57;;;17.80;99.90;;;;;;5032953;28;20483;-64
2023/10/13 09:22:54;;;;;;;11.83;9.53;;;17.90;99.90;;;;;;5033092;28;20437;-64
2023/10/13 09:25:22;;;;;;;9.70;8.13;;;18.00;99.90;;;;;;5031937;28;20453;-64
2023/10/13 09:27:52;;;;;;;13.83;9.20;;;18.10;99.90;;;;;;5032536;28;20524;-64
2023/10/13 09:30:18;;;;;;;9.38;8.57;;;18.20;99.90;;;;;;5032022;28;20463;-64
2023/10/13 09:32:48;;;;;;;10.20;8.10;;;18.20;99.90;;;;;;5029692;28;20200;-64
2023/10/13 09:35:20;;;;;;;10.37;8.77;;;18.30;99.90;;;;;;5022487;28;20964;-64
2023/10/13 09:37:47;;;;;;;11.73;7.93;;;18.30;99.90;;;;;;5025740;28;20475;-64
2023/10/13 09:40:25;;;;;;;9.40;8.50;;;18.30;99.90;;;;;;5027821;28;20457;-64
2023/10/13 09:42:55;;;;;;;8.20;7.30;;;18.50;99.90;;;;;;5032783;28;20445;-64
2023/10/13 09:45:27;;;;;;;9.37;8.33;;;18.50;99.90;;;;;;5031991;28;20826;-64
2023/10/13 09:47:57;;;;;;;9.23;8.10;;;18.70;99.90;;;;;;5030662;28;21040;-65
2023/10/13 09:50:33;;;;;;;7.37;6.63;;;18.70;99.90;;;;;;5027333;28;20806;-64
2023/10/13 09:53:01;;;;;;;7.75;7.05;;;18.80;99.90;;;;;;5032477;28;20476;-64
2023/10/13 09:55:33;;;;;;;7.63;6.60;;;19.00;99.90;;;;;;5032191;28;20673;-64
2023/10/13 09:58:10;;;;;;;8.67;6.47;;;19.20;99.90;;;;;;5031116;28;21015;-64
2023/10/13 10:00:56;;;;;;;9.60;7.60;;;19.30;99.90;;;;;;5032222;28;20495;-64
2023/10/13 10:03:39;;;;;;;6.60;5.90;;;19.50;99.90;;;;;;5032243;28;20448;-64
2023/10/13 10:06:13;;;;;;;7.30;6.70;;;19.60;99.90;;;;;;5029283;28;20450;-64
2023/10/13 10:08:48;;;;;;;7.20;6.50;;;20.00;99.90;;;;;;5023892;28;20498;-65
2023/10/13 10:11:48;;;;;;;11.23;8.27;;;20.10;99.90;;;;;;5029365;28;20452;-64
2023/10/13 10:14:19;;;;;;;8.10;6.53;;;20.10;99.90;;;;;;5030703;28;20967;-64
2023/10/13 10:17:01;;;;;;;9.37;6.60;;;20.20;99.90;;;;;;5029728;28;20503;-64
2023/10/13 10:19:30;;;;;;;10.00;7.40;;;20.20;99.90;;;;;;5030825;28;21038;-64
2023/10/13 10:22:16;;;;;;;8.40;5.40;;;20.30;99.90;;;;;;5027220;28;20665;-64
2023/10/13 10:24:43;;;;;;;10.87;6.57;;;20.30;99.90;;;;;;5018547;28;20508;-64
2023/10/13 10:27:14;;;;;;;6.75;6.03;;;20.20;99.90;;;;;;5031289;28;20524;-65
2023/10/13 10:29:41;;;;;;;9.13;7.03;;;20.40;99.90;;;;;;5030740;28;20285;-65
2023/10/13 10:32:14;;;;;;;6.27;5.43;;;20.60;99.90;;;;;;5031409;28;20484;-65
2023/10/13 10:34:41;;;;;;;6.13;5.40;;;20.60;99.90;;;;;;5023862;28;20537;-65
2023/10/13 10:37:10;;;;;;;9.65;6.10;;;20.70;99.90;;;;;;5031049;28;20449;-65
2023/10/13 10:39:46;;;;;;;7.63;6.07;;;20.90;99.90;;;;;;5027914;28;20207;-65
2023/10/13 10:42:18;;;;;;;5.67;5.03;;;21.10;99.90;;;;;;5030814;28;20289;-65
2023/10/13 10:44:48;;;;;;;6.17;5.47;;;21.20;99.90;;;;;;5029646;28;20598;-64
2023/10/13 10:47:30;;;;;;;8.18;6.25;;;21.30;99.90;;;;;;5030522;28;20464;-65
2023/10/13 10:49:57;;;;;;;6.10;5.40;;;21.50;99.90;;;;;;5030105;28;20306;-64
2023/10/13 10:52:36;;;;;;;5.97;5.23;;;21.60;99.90;;;;;;5030945;28;21004;-64
2023/10/13 10:55:06;;;;;;;5.73;5.23;;;21.70;99.90;;;;;;5027926;28;20454;-65
2023/10/13 10:57:37;;;;;;;6.60;5.90;;;21.90;99.90;;;;;;5026877;28;20464;-65
2023/10/13 11:00:11;;;;;;;6.20;5.60;;;22.10;99.90;;;;;;5031110;28;20440;-65
2023/10/13 11:02:38;;;;;;;5.60;5.00;;;22.30;99.90;;;;;;5030907;28;20958;-65
2023/10/13 11:05:06;;;;;;;6.10;5.00;;;22.50;99.90;;;;;;5031015;28;20837;-65
2023/10/13 11:07:35;;;;;;;6.27;5.20;;;22.80;99.90;;;;;;5030414;28;20480;-64
2023/10/13 11:10:11;;;;;;;8.50;5.33;;;23.00;99.90;;;;;;5030444;28;20551;-64
2023/10/13 11:12:39;;;;;;;5.65;4.88;;;23.10;98.00;;;;;;5031122;28;20528;-64
2023/10/13 11:15:13;;;;;;;6.13;5.60;;;23.30;96.90;;;;;;5031020;28;20286;-64
2023/10/13 11:17:48;;;;;;;8.80;6.00;;;23.60;97.50;;;;;;5030222;28;20462;-65
2023/10/13 11:20:25;;;;;;;5.67;5.17;;;23.80;97.60;;;;;;5030591;28;20481;-65
2023/10/13 11:22:54;;;;;;;5.80;5.30;;;23.80;96.50;;;;;;5030718;28;20445;-64
2023/10/13 11:25:23;;;;;;;5.50;4.63;;;23.90;96.60;;;;;;5030695;28;20235;-64
2023/10/13 11:28:05;;;;;;;5.80;5.27;;;24.10;94.60;;;;;;5030231;28;20528;-64
2023/10/13 11:30:41;;;;;;;5.10;4.63;;;24.10;95.90;;;;;;5030316;28;20458;-65
2023/10/13 11:33:10;;;;;;;5.90;5.30;;;24.20;95.50;;;;;;5030566;28;20442;-65
2023/10/13 11:38:28;;;;;;;9.48;5.50;;;24.40;95.30;;;;;;5025142;28;20465;-64
2023/10/13 11:41:15;;;;;;;7.07;5.77;;;24.60;96.20;;;;;;5030293;28;20245;-64
2023/10/13 11:44:05;;;;;;;5.73;5.30;;;24.80;94.20;;;;;;5027444;28;20546;-64
2023/10/13 11:49:31;;;;;;;5.30;4.80;;;24.90;91.60;;;;;;5030016;28;20852;-65
2023/10/13 11:52:15;;;;;;;5.60;4.53;;;25.10;92.50;;;;;;5014414;28;20472;-64
2023/10/13 11:54:44;;;;;;;7.43;5.20;;;25.20;93.50;;;;;;5030585;28;20456;-64
2023/10/13 11:57:11;;;;;;;6.70;5.97;;;25.20;91.40;;;;;;5030364;28;20479;-64
2023/10/13 11:59:44;;;;;;;7.30;5.43;;;25.20;91.60;;;;;;5029494;28;20876;-64
2023/10/13 12:04:59;;;;;;;5.50;5.00;;;25.30;91.70;;;;;;5030435;28;20507;-64
2023/10/13 12:07:40;;;;;;;6.70;5.40;;;25.20;89.90;;;;;;5030124;28;20234;-64
2023/10/13 12:10:15;;;;;;;8.77;5.57;;;25.20;90.50;;;;;;5029651;28;20236;-64
2023/10/13 12:12:43;;;;;;;10.63;6.23;;;25.10;89.20;;;;;;5019850;28;20473;-64
2023/10/13 12:15:14;;;;;;;6.10;5.40;;;25.10;89.20;;;;;;5030166;28;20974;-64
2023/10/13 12:17:44;;;;;;;12.67;5.67;;;25.10;90.00;;;;;;5029761;28;20471;-64
2023/10/13 12:20:18;;;;;;;5.90;5.20;;;25.10;90.00;;;;;;5029874;28;20449;-64
2023/10/13 12:22:54;;;;;;;9.13;6.20;;;25.20;90.80;;;;;;5030472;28;20451;-64
2023/10/13 12:25:44;;;;;;;7.03;5.60;;;25.30;91.20;;;;;;5030066;28;20199;-64
2023/10/13 12:28:18;;;;;;;5.70;5.30;;;25.60;87.00;;;;;;5015425;28;20465;-65
2023/10/13 12:30:50;;;;;;;6.70;5.67;;;25.70;86.70;;;;;;5032217;28;20460;-64
2023/10/13 12:33:24;;;;;;;7.20;5.43;;;25.70;87.10;;;;;;5033987;28;20814;-65
2023/10/13 12:36:03;;;;;;;5.67;5.13;;;25.80;90.20;;;;;;5033877;28;20875;-64
2023/10/13 12:38:50;;;;;;;6.00;5.60;;;25.80;87.30;;;;;;5033422;28;20859;-64
2023/10/13 12:52:18;;;;;;;6.03;5.43;;;26.80;83.40;;;;;;5024780;28;20469;-65
2023/10/13 12:54:47;;;;;;;6.70;4.77;;;26.90;85.40;;;;;;5033590;28;20928;-64
2023/10/13 12:57:15;;;;;;;5.87;5.37;;;26.80;85.00;;;;;;5033442;28;20885;-64
2023/10/13 12:59:42;;;;;;;6.57;5.97;;;26.70;88.50;;;;;;5032970;28;20436;-64
2023/10/13 13:02:14;;;;;;;5.73;5.00;;;26.70;89.30;;;;;;5033208;28;20433;-64
2023/10/13 13:04:44;;;;;;;5.30;4.80;;;26.60;86.40;;;;;;5033625;28;20441;-64
2023/10/13 13:07:13;;;;;;;6.43;5.63;;;26.80;84.20;;;;;;5033306;28;20469;-64
2023/10/13 13:09:40;;;;;;;6.60;5.87;;;27.10;83.70;;;;;;5033041;28;20485;-64
2023/10/13 13:12:07;;;;;;;6.23;5.70;;;27.30;83.50;;;;;;5033269;28;20526;-64
2023/10/13 13:14:35;;;;;;;7.00;6.30;;;27.60;81.90;;;;;;5032854;28;21007;-64
2023/10/13 13:17:05;;;;;;;5.50;5.00;;;27.80;80.20;;;;;;5033146;28;20532;-65
2023/10/13 13:19:35;;;;;;;7.50;5.70;;;28.10;78.70;;;;;;5032711;28;20440;-64
2023/10/13 13:22:03;;;;;;;5.87;5.37;;;28.40;77.20;;;;;;5017257;28;20468;-64
2023/10/13 13:24:30;;;;;;;6.90;4.63;;;28.70;77.50;;;;;;5033026;28;20446;-64
2023/10/13 13:27:02;;;;;;;5.73;5.33;;;29.00;75.10;;;;;;5032669;28;20445;-64
2023/10/13 13:29:30;;;;;;;7.55;4.88;;;29.40;73.70;;;;;;5032390;28;20999;-64
2023/10/13 13:32:00;;;;;;;5.75;5.25;;;29.70;74.50;;;;;;5032636;28;20289;-64
2023/10/13 13:34:26;;;;;;;5.23;4.73;;;30.00;72.80;;;;;;5032757;28;20505;-65
2023/10/13 13:36:53;;;;;;;8.20;5.50;;;30.10;71.60;;;;;;5028780;28;20457;-64
2023/10/13 13:39:28;;;;;;;5.57;5.00;;;30.20;70.00;;;;;;5032071;28;21170;-64
2023/10/13 13:41:56;;;;;;;6.23;5.43;;;30.00;71.50;;;;;;5031621;28;21017;-65
2023/10/13 13:44:28;;;;;;;5.70;5.20;;;29.80;67.00;;;;;;5032384;28;20524;-64
2023/10/13 13:46:58;;;;;;;7.40;5.83;;;29.50;67.10;;;;;;5032230;28;20880;-64
2023/10/13 13:49:39;;;;;;;8.27;5.77;;;29.40;71.90;;;;;;5032218;28;20568;-64
2023/10/13 13:52:06;;;;;;;6.30;5.70;;;29.10;67.80;;;;;;5016927;28;20451;-64
2023/10/13 13:54:33;;;;;;;9.23;5.33;;;28.80;66.70;;;;;;5032300;28;20513;-64
2023/10/13 13:57:00;;;;;;;5.00;4.60;;;28.50;68.90;;;;;;5032255;28;20446;-64
2023/10/13 13:59:33;;;;;;;5.32;4.75;;;28.20;68.90;;;;;;5031879;28;20524;-64
2023/10/13 14:02:06;;;;;;;4.80;4.40;;;28.00;71.20;;;;;;5016274;28;20727;-64
2023/10/13 14:04:34;;;;;;;7.63;5.20;;;27.80;67.90;;;;;;5031855;28;20515;-64
2023/10/13 14:07:06;;;;;;;5.50;4.73;;;28.00;71.30;;;;;;5031759;28;20524;-64
2023/10/13 14:09:36;;;;;;;5.17;4.40;;;28.20;75.60;;;;;;5031832;28;20485;-64
2023/10/13 14:12:29;;;;;;;6.15;5.35;;;28.50;69.20;;;;;;5032160;28;20449;-64
2023/10/13 14:14:56;;;;;;;8.20;5.57;;;28.90;70.50;;;;;;5031861;28;20202;-64
2023/10/13 14:17:28;;;;;;;5.00;4.60;;;29.50;69.40;;;;;;5032038;28;20464;-65
2023/10/13 14:19:57;;;;;;;5.87;5.27;;;29.50;64.30;;;;;;5031975;28;20858;-64
2023/10/13 14:22:26;;;;;;;5.70;5.13;;;29.20;61.60;;;;;;5025945;28;20469;-64
2023/10/13 14:24:55;;;;;;;6.23;4.90;;;28.80;64.80;;;;;;5031803;28;20508;-64
2023/10/13 14:27:23;;;;;;;4.97;4.40;;;28.40;63.90;;;;;;5029930;28;20476;-64
2023/10/13 14:29:52;;;;;;;5.33;4.83;;;28.10;65.10;;;;;;5031617;28;20489;-65
2023/10/13 14:32:24;;;;;;;6.10;4.60;;;27.80;65.60;;;;;;5030787;28;20456;-64
2023/10/13 14:34:56;;;;;;;5.10;4.60;;;27.50;64.60;;;;;;5031049;28;20990;-65
2023/10/13 14:37:28;;;;;;;6.03;5.47;;;27.30;65.10;;;;;;5030416;28;20519;-64
2023/10/13 14:39:57;;;;;;;6.40;4.73;;;27.10;67.30;;;;;;5030584;28;20442;-64
2023/10/13 14:42:24;;;;;;;5.40;4.90;;;27.00;71.60;;;;;;5030398;28;20463;-64
2023/10/13 14:44:55;;;;;;;6.20;5.70;;;27.00;68.50;;;;;;5031289;28;20632;-64
2023/10/13 14:47:24;;;;;;;6.20;4.20;;;27.10;66.50;;;;;;5028893;28;20478;-64
2023/10/13 14:49:55;;;;;;;4.77;3.83;;;27.60;66.60;;;;;;5030566;28;20282;-64
2023/10/13 14:52:22;;;;;;;6.40;5.17;;;28.30;71.00;;;;;;5026960;28;20464;-64
2023/10/13 14:54:54;;;;;;;8.05;5.30;;;29.20;68.10;;;;;;5030419;28;20449;-65
2023/10/13 14:57:24;;;;;;;7.77;4.80;;;30.00;59.80;;;;;;5034287;28;20245;-65
2023/10/13 14:59:51;;;;;;;4.83;4.43;;;30.60;58.50;;;;;;5029896;28;20897;-65
2023/10/13 15:02:18;;;;;;;9.50;5.00;;;31.00;58.30;;;;;;5030579;28;21025;-65
2023/10/13 15:04:48;;;;;;;5.60;4.47;;;31.30;57.00;;;;;;5030947;28;20449;-65